createdAt,value
2019-03-22T00:03:05.349Z,8.10
2019-03-22T00:07:10.609Z,8.10
2019-03-22T00:11:16.125Z,8.10
2019-03-22T00:15:21.355Z,8.20
2019-03-22T00:19:26.756Z,8.20
2019-03-22T00:23:32.307Z,8.30
2019-03-22T00:27:38.176Z,8.40
2019-03-22T00:31:43.724Z,8.40
2019-03-22T00:35:49.310Z,8.60
2019-03-22T00:39:54.823Z,8.70
2019-03-22T00:44:00.394Z,8.80
2019-03-22T00:48:06.101Z,8.80
2019-03-22T00:52:11.627Z,8.90
2019-03-22T00:56:17.072Z,9.00
2019-03-22T01:00:22.877Z,9.00
2019-03-22T01:04:28.593Z,9.10
2019-03-22T01:08:34.968Z,9.10
2019-03-22T01:12:40.772Z,9.20
2019-03-22T01:16:46.092Z,9.20
2019-03-22T01:20:51.240Z,9.20
2019-03-22T01:24:56.971Z,9.20
2019-03-22T01:29:03.363Z,9.20
2019-03-22T01:33:08.899Z,9.20
2019-03-22T01:37:14.833Z,9.30
2019-03-22T01:41:20.115Z,9.30
2019-03-22T01:45:26.220Z,9.30
2019-03-22T01:49:31.799Z,9.30
2019-03-22T01:53:37.252Z,9.30
2019-03-22T01:57:52.544Z,9.30
2019-03-22T02:01:49.687Z,9.40
2019-03-22T02:05:58.199Z,9.40
2019-03-22T02:10:03.672Z,9.40
2019-03-22T02:14:09.427Z,9.30
2019-03-22T02:18:15.685Z,9.40
2019-03-22T02:22:21.134Z,9.40
2019-03-22T02:26:26.295Z,9.40
2019-03-22T02:30:32.290Z,9.40
2019-03-22T02:34:37.480Z,9.40
2019-03-22T02:38:43.118Z,9.40
2019-03-22T02:42:48.396Z,9.40
2019-03-22T02:46:53.984Z,9.50
2019-03-22T02:50:59.709Z,9.40
2019-03-22T02:55:06.263Z,9.40
2019-03-22T02:59:11.642Z,9.40
2019-03-22T03:03:18.408Z,9.30
2019-03-22T03:07:23.810Z,9.30
2019-03-22T03:11:29.359Z,9.40
2019-03-22T03:15:34.958Z,9.30
2019-03-22T03:19:40.182Z,9.30
2019-03-22T03:23:48.686Z,9.20
2019-03-22T03:27:54.331Z,9.30
2019-03-22T03:31:59.833Z,9.30
2019-03-22T03:36:05.556Z,9.30
2019-03-22T03:40:11.337Z,9.30
2019-03-22T03:44:16.897Z,9.30
2019-03-22T03:48:22.853Z,9.20
2019-03-22T03:52:28.011Z,9.20
2019-03-22T03:56:33.469Z,9.20
2019-03-22T04:00:38.937Z,9.20
2019-03-22T04:04:44.064Z,9.20
2019-03-22T04:08:49.511Z,9.20
2019-03-22T04:12:54.896Z,9.20
2019-03-22T04:17:00.032Z,9.20
2019-03-22T04:21:06.126Z,9.20
2019-03-22T04:25:11.700Z,9.20
2019-03-22T04:29:16.911Z,9.20
2019-03-22T04:33:22.027Z,9.20
2019-03-22T04:37:27.188Z,9.20
2019-03-22T04:41:32.270Z,9.20
2019-03-22T04:45:39.236Z,9.20
2019-03-22T04:49:45.050Z,9.20
2019-03-22T04:54:00.347Z,9.20
2019-03-22T04:58:07.236Z,9.30
2019-03-22T05:02:13.347Z,9.30
2019-03-22T05:06:20.171Z,9.30
2019-03-22T05:10:26.216Z,9.30
2019-03-22T05:14:33.375Z,9.30
2019-03-22T05:18:39.511Z,9.30
2019-03-22T05:22:46.599Z,9.30
2019-03-22T05:26:53.082Z,9.30
2019-03-22T05:31:26.992Z,9.30
2019-03-22T05:35:32.165Z,9.40
2019-03-22T05:39:37.338Z,9.40
2019-03-22T05:43:43.182Z,9.40
2019-03-22T05:47:48.576Z,9.40
2019-03-22T05:51:54.501Z,9.40
2019-03-22T05:55:59.653Z,9.40
2019-03-22T06:00:06.204Z,9.30
2019-03-22T06:04:11.327Z,9.40
2019-03-22T06:08:16.449Z,9.30
2019-03-22T06:12:21.885Z,9.40
2019-03-22T06:16:27.119Z,9.40
2019-03-22T06:20:32.272Z,9.50
2019-03-22T06:24:37.410Z,9.50
2019-03-22T06:28:42.767Z,9.50
2019-03-22T06:32:47.910Z,9.50
2019-03-22T06:36:55.477Z,9.50
2019-03-22T06:41:00.647Z,9.50
2019-03-22T06:45:06.968Z,9.60
2019-03-22T06:49:12.426Z,9.60
2019-03-22T06:53:17.628Z,9.60
2019-03-22T06:57:25.367Z,9.60
2019-03-22T07:01:30.883Z,9.60
2019-03-22T07:05:36.292Z,9.60
2019-03-22T07:09:42.154Z,9.60
2019-03-22T07:13:47.291Z,9.60
2019-03-22T07:17:52.745Z,9.70
2019-03-22T07:21:57.879Z,9.60
2019-03-22T07:26:03.595Z,9.50
2019-03-22T07:30:18.694Z,9.40
2019-03-22T07:34:16.847Z,9.50
2019-03-22T07:38:22.124Z,9.60
2019-03-22T07:42:27.636Z,9.60
2019-03-22T07:46:33.215Z,9.60
2019-03-22T07:50:38.486Z,9.60
2019-03-22T07:54:44.031Z,9.70
2019-03-22T07:58:49.944Z,9.80
2019-03-22T08:02:55.643Z,9.80
2019-03-22T08:07:01.405Z,9.80
2019-03-22T08:11:07.224Z,9.90
2019-03-22T08:15:16.040Z,10.00
2019-03-22T08:19:22.123Z,9.80
2019-03-22T08:23:27.636Z,9.80
2019-03-22T08:27:33.160Z,9.80
2019-03-22T08:31:38.765Z,9.80
2019-03-22T08:35:44.234Z,10.00
2019-03-22T08:39:49.792Z,10.10
2019-03-22T08:43:54.928Z,10.00
2019-03-22T08:48:00.123Z,9.90
2019-03-22T08:52:05.953Z,9.80
2019-03-22T08:56:11.612Z,9.90
2019-03-22T09:00:17.420Z,10.00
2019-03-22T09:04:23.033Z,10.10
2019-03-22T09:08:29.009Z,10.20
2019-03-22T09:12:53.214Z,10.30
2019-03-22T09:16:58.500Z,10.30
2019-03-22T09:21:03.863Z,10.10
2019-03-22T09:25:09.397Z,10.30
2019-03-22T09:29:14.593Z,10.30
2019-03-22T09:33:20.169Z,10.40
2019-03-22T09:37:25.570Z,10.50
2019-03-22T09:41:31.206Z,10.40
2019-03-22T09:45:36.727Z,10.40
2019-03-22T09:49:42.222Z,10.20
2019-03-22T09:53:47.744Z,10.20
2019-03-22T09:57:52.952Z,10.30
2019-03-22T10:01:58.219Z,10.40
2019-03-22T10:06:04.016Z,10.30
2019-03-22T10:10:09.560Z,10.40
2019-03-22T10:14:15.897Z,10.30
2019-03-22T10:18:21.023Z,10.20
2019-03-22T10:22:26.142Z,10.20
2019-03-22T10:26:31.391Z,10.20
2019-03-22T10:30:36.556Z,10.30
2019-03-22T10:34:42.171Z,10.40
2019-03-22T10:38:50.345Z,10.50
2019-03-22T10:42:54.628Z,10.50
2019-03-22T10:46:59.847Z,10.50
2019-03-22T10:51:05.425Z,10.50
2019-03-22T10:55:28.903Z,10.50
2019-03-22T10:59:22.846Z,10.60
2019-03-22T11:54:20.595Z,10.90
2019-03-22T11:58:25.931Z,10.90
2019-03-22T12:02:31.159Z,10.90
2019-03-22T12:06:36.870Z,10.70
2019-03-22T12:10:42.044Z,10.70
2019-03-22T12:14:48.178Z,10.80
2019-03-22T12:18:54.263Z,10.90
2019-03-22T12:22:59.407Z,10.90
2019-03-22T12:27:04.717Z,10.70
2019-03-22T12:31:10.191Z,10.70
2019-03-22T12:35:15.856Z,10.80
2019-03-22T12:39:21.040Z,10.80
2019-03-22T12:43:26.329Z,11.00
2019-03-22T12:47:31.859Z,10.80
2019-03-22T12:51:37.487Z,10.90
2019-03-22T12:55:43.843Z,11.00
2019-03-22T12:59:49.801Z,10.90
2019-03-22T13:03:58.401Z,11.00
2019-03-22T13:08:05.118Z,11.10
2019-03-22T13:12:11.176Z,11.20
2019-03-22T13:16:16.613Z,11.00
2019-03-22T13:20:23.234Z,11.00
2019-03-22T13:24:34.049Z,11.00
2019-03-22T13:28:40.532Z,11.20
2019-03-22T13:32:52.181Z,11.30
2019-03-22T13:37:00.384Z,11.30
2019-03-22T13:41:09.143Z,11.30
2019-03-22T13:45:20.562Z,11.40
2019-03-22T13:49:26.318Z,11.40
2019-03-22T13:53:31.929Z,11.50
2019-03-22T13:57:37.193Z,11.70
2019-03-22T14:01:45.904Z,11.60
2019-03-22T14:05:57.216Z,11.50
2019-03-22T14:10:02.486Z,11.60
2019-03-22T14:14:09.479Z,11.50
2019-03-22T14:18:14.633Z,11.50
2019-03-22T14:22:19.876Z,11.40
2019-03-22T14:26:25.411Z,11.10
2019-03-22T14:30:31.750Z,11.20
2019-03-22T14:34:37.485Z,11.40
2019-03-22T14:38:44.379Z,11.60
2019-03-22T14:42:50.106Z,11.50
2019-03-22T14:46:56.620Z,11.50
2019-03-22T14:51:02.270Z,11.50
2019-03-22T14:55:11.523Z,11.20
2019-03-22T14:59:17.142Z,11.20
2019-03-22T15:03:31.000Z,11.10
2019-03-22T15:07:36.797Z,11.20
2019-03-22T15:11:42.078Z,10.90
2019-03-22T15:15:58.206Z,10.80
2019-03-22T15:20:21.591Z,10.90
2019-03-22T15:24:43.502Z,10.80
2019-03-22T15:29:06.826Z,10.90
2019-03-22T15:33:22.183Z,11.00
2019-03-22T15:37:43.797Z,11.00
2019-03-22T15:41:49.055Z,11.00
2019-03-22T15:45:54.395Z,10.80
2019-03-22T15:50:00.349Z,10.80
2019-03-22T15:54:05.930Z,11.00
2019-03-22T15:58:12.107Z,11.00
2019-03-22T16:02:17.744Z,10.90
2019-03-22T16:06:25.066Z,10.80
2019-03-22T16:10:31.320Z,10.80
2019-03-22T16:14:37.076Z,10.70
2019-03-22T16:18:42.611Z,10.60
2019-03-22T16:41:47.533Z,10.40
2019-03-22T16:45:52.945Z,10.40
2019-03-22T16:49:59.582Z,10.30
2019-03-22T16:54:05.134Z,10.30
2019-03-22T16:58:10.795Z,10.30
2019-03-22T17:02:16.009Z,10.20
2019-03-22T17:06:22.383Z,10.10
2019-03-22T17:10:27.503Z,10.00
2019-03-22T17:14:32.645Z,9.90
2019-03-22T17:18:37.768Z,9.80
2019-03-22T17:22:43.011Z,9.70
2019-03-22T17:26:48.290Z,9.60
2019-03-22T17:30:53.847Z,9.60
2019-03-22T17:35:00.390Z,9.50
2019-03-22T17:44:16.360Z,9.40
2019-03-22T17:48:24.155Z,9.40
2019-03-22T17:52:29.486Z,9.40
2019-03-22T17:56:36.181Z,9.40
2019-03-22T18:00:42.888Z,9.30
2019-03-22T18:04:48.722Z,9.30
2019-03-22T18:08:53.983Z,9.20
2019-03-22T18:12:59.174Z,9.20
2019-03-22T18:17:04.407Z,9.20
2019-03-22T18:21:09.530Z,9.20
2019-03-22T18:25:15.815Z,9.20
2019-03-22T18:29:21.341Z,9.20
2019-03-22T18:33:26.552Z,9.20
2019-03-22T18:37:31.882Z,9.20
2019-03-22T18:41:37.782Z,9.20
2019-03-22T18:45:44.191Z,9.10
2019-03-22T18:49:51.595Z,9.10
2019-03-22T18:53:57.946Z,9.00
2019-03-22T18:58:05.938Z,9.00
2019-03-22T19:02:12.235Z,9.00
2019-03-22T19:06:17.404Z,9.00
2019-03-22T19:10:22.578Z,8.90
2019-03-22T19:14:27.949Z,8.90
2019-03-22T19:18:34.213Z,8.80
2019-03-22T19:22:39.396Z,8.80
2019-03-22T19:26:44.563Z,8.80
2019-03-22T19:30:51.382Z,8.80
2019-03-22T19:34:56.696Z,8.70
2019-03-22T19:39:01.878Z,8.80
2019-03-22T19:43:07.980Z,8.60
2019-03-22T19:47:13.195Z,8.60
2019-03-22T19:51:18.398Z,8.50
2019-03-22T19:55:23.603Z,8.50
2019-03-22T19:59:28.732Z,8.40
2019-03-22T20:03:33.965Z,8.40
2019-03-22T20:07:39.213Z,8.40
2019-03-22T20:11:44.335Z,8.30
2019-03-22T20:15:49.494Z,8.30
2019-03-22T20:19:54.754Z,8.30
2019-03-22T20:24:00.290Z,8.20
2019-03-22T20:28:05.574Z,8.20
2019-03-22T20:32:10.702Z,8.10
2019-03-22T20:36:15.855Z,8.10
2019-03-22T20:40:21.135Z,8.10
2019-03-22T20:44:33.889Z,8.10
2019-03-22T20:48:34.539Z,8.10
2019-03-22T20:52:40.047Z,8.10
2019-03-22T20:56:46.848Z,8.10
2019-03-22T21:00:51.962Z,8.00
2019-03-22T21:04:57.202Z,8.00
2019-03-22T21:09:02.420Z,8.00
2019-03-22T21:13:08.231Z,7.90
2019-03-22T21:17:13.611Z,7.90
2019-03-22T21:21:18.759Z,7.90
2019-03-22T21:25:23.974Z,7.90
2019-03-22T21:29:29.234Z,7.80
2019-03-22T21:33:34.783Z,7.80
2019-03-22T21:37:40.083Z,7.80
2019-03-22T21:41:45.380Z,7.80
2019-03-22T21:45:50.821Z,7.80
2019-03-22T21:49:56.177Z,7.80
2019-03-22T21:54:01.465Z,7.70
2019-03-22T21:58:06.744Z,7.70
2019-03-22T22:02:12.111Z,7.70
2019-03-22T22:06:17.354Z,7.70
2019-03-22T22:10:22.706Z,7.60
2019-03-22T22:14:27.834Z,7.70
2019-03-22T22:18:32.980Z,7.60
2019-03-22T22:22:38.179Z,7.60
2019-03-22T22:26:43.392Z,7.50
2019-03-22T22:30:48.579Z,7.50
2019-03-22T22:34:53.787Z,7.40
2019-03-22T22:38:58.963Z,7.40
2019-03-22T22:43:04.193Z,7.40
2019-03-22T22:47:09.386Z,7.40
2019-03-22T22:51:14.600Z,7.40
2019-03-22T22:55:19.746Z,7.40
2019-03-22T22:59:24.844Z,7.40
2019-03-22T23:03:29.959Z,7.30
2019-03-22T23:07:35.142Z,7.30
2019-03-22T23:11:40.330Z,7.30
2019-03-22T23:15:45.731Z,7.30
2019-03-22T23:19:50.908Z,7.30
2019-03-22T23:23:56.171Z,7.20
2019-03-22T23:28:05.384Z,7.20
2019-03-22T23:32:11.656Z,7.10
2019-03-22T23:36:20.387Z,7.10
2019-03-22T23:40:24.188Z,7.10
2019-03-22T23:44:29.503Z,7.00
2019-03-22T23:48:34.720Z,7.00
2019-03-22T23:52:39.856Z,7.00
2019-03-22T23:56:45.134Z,6.90
